Airfield :
LOGIN :

Register | Disclaimer

   EN    FR    IT 

 










Legend :    VFR   Marginal VFR   IFR   Intensive IFR   Very Intensive IFR
Visi :
Ceiling :
>= 8 km
>= 3000ft
5 to 8 km
1000 to 3000 ft
1500m to 5 km
500 to 1000 ft
800 to 1500m
200 to 500 ft
< 800m
< 200 ft
Symbols :   Thunderstorms  Fog  Heavy snow  Heavy precipitations  Wind > 20 kt
SIGMETs :     Misc.  Thunderstorms  Icing  Turbulence  Mountain Waves  Volcanic Ashes







- Airport Elevation : 202 ft
- IATA code : LGW
- Download approach charts


EGKK - London Gatwick

CURRENT METAR :
  • 172120Z 18005KT 6000 -RA FEW009 BKN014 10/09 Q1016

EXPIRED METARs :
  • 172050Z 20006KT 7000 -RA SCT017 11/09 Q1016
  • 172020Z 19006KT 9999 FEW016 SCT025 11/09 Q1016
  • 171950Z 19006KT 9000 FEW017 SCT032 11/09 Q1016
  • 171920Z 20006KT 160V230 9999 SCT016 11/09 Q1016
  • 171850Z 21005KT 9999 SCT011 10/09 Q1016

TAF TAF EGKK
Valid from the 17 at 18:00 until the 19 at 00:00 UTC


171658Z 1718/1824 20008KT 9999 SCT018
TEMPO 1718/1824 BKN012
PROB30
TEMPO 1718/1803 7000 BKN008
PROB30
TEMPO 1803/1810 3000 BR BKN004
PROB40
TEMPO 1810/1823 7000 SHRA RA BKN008
BECMG 1821/1824 26010KT
No reported NOTAMs for that airfield.



MET'MAP, your aeronautical weather chart ! - Copyright ORBIFLY December 2007 - Disclaimer

ORBIFLY MET'MAP TEAM :

Programming & Development : Alexandra Zaïnal
Concept & Development : Baudouin d'Aumeries
Co-Development & Prog : Marc-Olivier Méhu
Technical & hardware support : Manuel Goepfert

Contact : metmap@orbifly.com




SOURCES & CREDITS :

   NOAA